OLB weather

Olbia Costa Smeralda Airport
Olbia (SS), Sardinia, Italy

Public forecast

Using degrees Celsius for public forecast. Weather courtesy of forecast.io.

Current aviation weather report (METAR) for Olbia Costa Smeralda Airport

Retrieved 2020/05/26 08:20 UTC (26 minutes ago):

LIEO 260820Z VRB02KT CAVOK 24/10 Q1024

Aviation forecast (TAF) for Olbia Costa Smeralda Airport

Retrieved 2020/05/26 06:00 UTC (3 hours ago):

TAF LIEO 260500Z 2606/2706 VRB04KT 9999 FEW030 BECMG 2608/2610 06012KT BECMG 2618/2620 VRB05KT